createdAt,value
2018-04-15T00:00:10.631Z,35.33
2018-04-15T00:02:39.036Z,35.37
2018-04-15T00:05:06.661Z,36.03
2018-04-15T00:07:34.663Z,36.17
2018-04-15T00:10:03.055Z,34.13
2018-04-15T00:12:31.467Z,28.80
2018-04-15T00:14:59.099Z,32.70
2018-04-15T00:17:27.511Z,33.47
2018-04-15T00:19:55.144Z,35.97
2018-04-15T00:22:22.767Z,40.23
2018-04-15T00:24:50.399Z,35.77
2018-04-15T00:27:18.025Z,32.33
2018-04-15T00:29:45.652Z,35.97
2018-04-15T00:32:13.304Z,30.33
2018-04-15T00:34:40.914Z,35.97
2018-04-15T00:37:08.543Z,37.00
2018-04-15T00:39:36.167Z,30.07
2018-04-15T00:42:03.799Z,33.00
2018-04-15T00:44:31.425Z,28.67
2018-04-15T00:46:59.050Z,35.13
2018-04-15T00:49:26.684Z,35.77
2018-04-15T00:51:54.316Z,31.13
2018-04-15T00:54:22.703Z,32.77
2018-04-15T00:56:50.335Z,32.60
2018-04-15T00:59:18.968Z,34.53
2018-04-15T01:01:47.339Z,38.30
2018-04-15T01:04:14.967Z,36.07
2018-04-15T01:06:42.590Z,30.77
2018-04-15T01:09:10.217Z,31.87
2018-04-15T01:11:38.606Z,31.20
2018-04-15T01:14:07.007Z,33.70
2018-04-15T01:16:34.644Z,34.40
2018-04-15T01:19:02.259Z,30.43
2018-04-15T01:21:29.887Z,36.57
2018-04-15T01:23:58.298Z,34.13
2018-04-15T01:26:25.908Z,33.87
2018-04-15T01:28:53.531Z,32.30
2018-04-15T01:31:21.159Z,31.67
2018-04-15T01:33:48.794Z,33.20
2018-04-15T01:36:16.419Z,36.23
2018-04-15T01:38:44.308Z,34.03
2018-04-15T01:41:11.943Z,37.63
2018-04-15T01:43:40.327Z,41.37
2018-04-15T01:46:08.718Z,34.47
2018-04-15T01:48:36.647Z,33.10
2018-04-15T01:51:04.283Z,33.80
2018-04-15T01:53:31.917Z,34.27
2018-04-15T01:55:59.571Z,33.20
2018-04-15T01:58:27.959Z,34.33
2018-04-15T02:00:56.359Z,36.57
2018-04-15T02:03:23.992Z,33.93
2018-04-15T02:05:51.610Z,26.33
2018-04-15T02:08:19.239Z,35.97
2018-04-15T02:10:47.654Z,36.60
2018-04-15T02:13:15.279Z,33.40
2018-04-15T02:15:42.904Z,39.73
2018-04-15T02:18:10.543Z,39.20
2018-04-15T02:20:38.167Z,35.77
2018-04-15T02:23:05.799Z,38.30
2018-04-15T02:25:33.423Z,37.43
2018-04-15T02:28:01.055Z,37.20
2018-04-15T02:30:28.684Z,33.33
2018-04-15T02:32:56.319Z,33.00
2018-04-15T02:35:24.723Z,35.50
2018-04-15T02:37:52.347Z,34.37
2018-04-15T02:40:19.982Z,33.53
2018-04-15T02:42:47.635Z,34.10
2018-04-15T02:45:15.264Z,33.63
2018-04-15T02:47:42.895Z,32.60
2018-04-15T02:50:10.515Z,33.13
2018-04-15T02:52:38.144Z,36.77
2018-04-15T02:55:05.781Z,34.33
2018-04-15T02:57:33.399Z,34.87
2018-04-15T03:00:01.037Z,40.93
2018-04-15T03:02:28.688Z,37.17
2018-04-15T03:04:56.311Z,36.00
2018-04-15T03:07:23.944Z,40.20
2018-04-15T03:09:52.040Z,33.80
2018-04-15T03:12:20.437Z,39.80
2018-04-15T03:14:48.063Z,36.00
2018-04-15T03:17:15.683Z,36.73
2018-04-15T03:19:43.311Z,41.63
2018-04-15T03:22:11.715Z,35.00
2018-04-15T03:24:39.347Z,39.40
2018-04-15T03:27:06.975Z,38.53
2018-04-15T03:29:34.607Z,35.70
2018-04-15T03:32:02.999Z,37.13
2018-04-15T03:34:30.627Z,36.80
2018-04-15T03:36:58.254Z,31.53
2018-04-15T03:39:31.691Z,31.40
2018-04-15T03:41:59.311Z,35.63
2018-04-15T03:44:26.958Z,32.93
2018-04-15T03:46:54.591Z,32.07
2018-04-15T03:49:22.215Z,30.70
2018-04-15T03:51:49.851Z,28.93
2018-04-15T03:54:18.238Z,27.10
2018-04-15T03:56:45.871Z,27.13
2018-04-15T03:59:13.492Z,30.43
2018-04-15T04:01:41.128Z,26.33
2018-04-15T04:04:08.763Z,20.73
2018-04-15T04:06:36.387Z,20.33
2018-04-15T04:09:04.011Z,23.10
2018-04-15T04:11:31.639Z,21.80
2018-04-15T04:13:59.275Z,19.70
2018-04-15T04:16:26.898Z,17.67
2018-04-15T04:19:06.555Z,22.03
2018-04-15T04:24:45.206Z,17.73
2018-04-15T04:27:12.831Z,17.77
2018-04-15T04:29:40.458Z,21.27
2018-04-15T04:32:08.079Z,21.83
2018-04-15T04:34:35.715Z,22.90
2018-04-15T04:37:03.343Z,20.03
2018-04-15T04:39:30.962Z,18.17
2018-04-15T04:41:58.601Z,24.37
2018-04-15T04:44:28.242Z,21.30
2018-04-15T04:46:55.874Z,23.17
2018-04-15T04:49:23.508Z,16.70
2018-04-15T04:51:51.139Z,20.73
2018-04-15T04:54:18.766Z,20.60
2018-04-15T04:56:46.400Z,21.03
2018-04-15T04:59:14.060Z,19.17
2018-04-15T05:01:42.450Z,23.00
2018-04-15T05:04:10.075Z,20.10
2018-04-15T05:06:37.703Z,17.97
2018-04-15T05:09:05.340Z,21.57
2018-04-15T05:11:33.734Z,22.47
2018-04-15T05:14:01.359Z,22.03
2018-04-15T05:16:28.982Z,20.90
2018-04-15T05:18:56.612Z,20.07
2018-04-15T05:21:24.251Z,19.57
2018-04-15T05:23:51.874Z,21.33
2018-04-15T05:26:19.505Z,19.43
2018-04-15T05:28:47.899Z,19.00
2018-04-15T05:31:16.291Z,18.97
2018-04-15T05:33:44.689Z,21.83
2018-04-15T05:36:12.319Z,15.43
2018-04-15T05:38:39.935Z,20.03
2018-04-15T05:41:07.563Z,18.87
2018-04-15T05:43:35.955Z,18.73
2018-04-15T05:46:03.599Z,13.97
2018-04-15T05:48:31.219Z,16.27
2018-04-15T05:50:58.849Z,15.87
2018-04-15T05:53:27.228Z,16.30
2018-04-15T05:55:54.852Z,15.33
2018-04-15T05:58:22.478Z,14.50
2018-04-15T06:00:50.174Z,15.63
2018-04-15T06:03:26.015Z,17.47
2018-04-15T06:05:53.635Z,15.97
2018-04-15T06:08:21.275Z,16.87
2018-04-15T06:10:48.887Z,15.83
2018-04-15T06:13:16.506Z,14.30
2018-04-15T06:15:44.150Z,16.40
2018-04-15T06:18:11.767Z,13.57
2018-04-15T06:20:46.856Z,17.17
2018-04-15T06:23:14.471Z,17.53
2018-04-15T06:25:56.359Z,15.07
2018-04-15T06:28:23.983Z,15.03
2018-04-15T06:30:51.603Z,12.87
2018-04-15T06:33:19.991Z,13.03
2018-04-15T06:35:51.207Z,14.13
2018-04-15T06:38:18.826Z,13.77
2018-04-15T06:40:46.451Z,12.43
2018-04-15T06:43:14.855Z,13.03
2018-04-15T06:45:42.487Z,13.80
2018-04-15T06:48:10.106Z,15.93
2018-04-15T06:50:37.735Z,9.90
2018-04-15T06:53:05.353Z,9.33
2018-04-15T06:55:32.974Z,9.80
2018-04-15T06:58:01.355Z,9.13
2018-04-15T07:00:29.739Z,11.23
2018-04-15T07:02:58.128Z,6.80
2018-04-15T07:05:26.514Z,7.07
2018-04-15T07:07:54.902Z,8.30
2018-04-15T07:10:23.283Z,6.83
2018-04-15T07:12:51.673Z,9.47
2018-04-15T07:15:19.288Z,5.80
2018-04-15T07:17:46.911Z,7.73
2018-04-15T07:20:14.536Z,6.17
2018-04-15T07:22:42.152Z,5.47
2018-04-15T07:25:09.771Z,5.73
2018-04-15T07:27:37.395Z,5.47
2018-04-15T07:30:05.015Z,6.27
2018-04-15T07:32:33.398Z,5.90
2018-04-15T07:35:01.795Z,5.93
2018-04-15T07:37:29.407Z,7.13
2018-04-15T07:39:57.027Z,6.73
2018-04-15T07:42:24.647Z,3.97
2018-04-15T07:44:52.268Z,4.37
2018-04-15T07:47:19.884Z,4.70
2018-04-15T07:49:47.500Z,5.00
2018-04-15T07:52:15.127Z,4.30
2018-04-15T07:54:42.747Z,3.80
2018-04-15T07:57:10.372Z,5.67
2018-04-15T07:59:38.754Z,3.47
2018-04-15T08:02:09.055Z,3.67
2018-04-15T08:04:36.678Z,5.60
2018-04-15T08:07:04.299Z,4.30
2018-04-15T08:09:31.919Z,3.37
2018-04-15T08:11:59.539Z,4.73
2018-04-15T08:14:27.163Z,3.27
2018-04-15T08:16:54.791Z,3.93
2018-04-15T08:19:22.418Z,2.17
2018-04-15T08:21:50.034Z,2.40
2018-04-15T08:24:17.656Z,2.87
2018-04-15T08:26:45.281Z,2.00
2018-04-15T08:29:12.891Z,2.27
2018-04-15T08:31:40.507Z,2.10
2018-04-15T08:34:08.130Z,1.63
2018-04-15T08:36:35.751Z,2.27
2018-04-15T08:39:03.371Z,1.67
2018-04-15T08:41:31.766Z,1.67
2018-04-15T08:43:59.383Z,2.07
2018-04-15T08:46:27.011Z,1.40
2018-04-15T08:48:54.630Z,2.30
2018-04-15T08:51:22.276Z,1.67
2018-04-15T08:53:49.887Z,1.80
2018-04-15T08:56:18.271Z,1.30
2018-04-15T08:58:46.658Z,1.00
2018-04-15T09:01:15.043Z,1.47
2018-04-15T09:03:42.663Z,1.00
2018-04-15T09:06:10.279Z,1.27
2018-04-15T09:08:37.902Z,1.57
2018-04-15T09:11:05.518Z,1.40
2018-04-15T09:13:33.139Z,1.00
2018-04-15T09:16:00.768Z,0.90
2018-04-15T09:18:28.379Z,1.00
2018-04-15T09:20:56.003Z,1.93
2018-04-15T09:23:23.618Z,1.37
2018-04-15T09:25:52.011Z,1.43
2018-04-15T09:28:20.572Z,1.00
2018-04-15T09:30:48.251Z,3.33
2018-04-15T09:33:15.944Z,0.87
2018-04-15T09:35:44.345Z,1.20
2018-04-15T09:38:12.158Z,1.00
2018-04-15T09:40:40.522Z,1.03
2018-04-15T09:43:08.180Z,1.37
2018-04-15T09:45:35.820Z,0.90
2018-04-15T09:48:03.477Z,1.00
2018-04-15T09:50:31.872Z,1.53
2018-04-15T09:52:59.530Z,0.77
2018-04-15T09:55:28.002Z,0.90
2018-04-15T09:57:56.562Z,1.00
2018-04-15T10:00:24.228Z,1.17
2018-04-15T10:02:51.902Z,0.90
2018-04-15T10:05:19.512Z,0.70
2018-04-15T10:07:47.151Z,0.60
2018-04-15T10:10:15.538Z,0.80
2018-04-15T10:12:43.923Z,0.77
2018-04-15T10:15:12.307Z,0.83
2018-04-15T10:17:40.690Z,1.03
2018-04-15T10:20:09.080Z,0.70
2018-04-15T10:22:36.699Z,0.90
2018-04-15T10:25:04.311Z,1.80
2018-04-15T10:27:31.936Z,0.60
2018-04-15T10:29:59.564Z,0.60
2018-04-15T10:32:27.179Z,0.60
2018-04-15T10:34:54.800Z,0.60
2018-04-15T10:37:22.415Z,0.70
2018-04-15T10:39:50.031Z,0.70
2018-04-15T10:42:17.656Z,0.70
2018-04-15T10:44:46.040Z,0.63
2018-04-15T10:47:14.430Z,0.70
2018-04-15T10:49:42.815Z,0.70
2018-04-15T10:52:10.438Z,0.87
2018-04-15T10:54:38.062Z,0.60
2018-04-15T10:57:05.666Z,0.63
2018-04-15T10:59:33.287Z,0.60
2018-04-15T11:02:00.911Z,0.60
2018-04-15T11:04:28.527Z,0.60
2018-04-15T11:06:56.143Z,0.60
2018-04-15T11:09:23.767Z,0.60
2018-04-15T11:11:51.383Z,0.60
2018-04-15T11:14:18.998Z,0.60
2018-04-15T11:16:46.610Z,0.80
2018-04-15T11:19:14.243Z,0.53
2018-04-15T11:21:41.847Z,0.70
2018-04-15T11:24:09.510Z,0.70
2018-04-15T11:26:37.127Z,0.53
2018-04-15T11:29:04.742Z,0.67
2018-04-15T11:31:32.366Z,0.70
2018-04-15T11:33:59.979Z,0.93
2018-04-15T11:36:27.595Z,2.63
2018-04-15T11:38:55.207Z,0.80
2018-04-15T11:41:22.826Z,0.70
2018-04-15T11:43:50.439Z,0.57
2018-04-15T11:46:18.058Z,0.80
2018-04-15T11:48:45.680Z,0.70
2018-04-15T11:51:14.058Z,0.73
2018-04-15T11:53:53.942Z,0.80
2018-04-15T11:56:21.563Z,0.90
2018-04-15T11:58:49.183Z,1.23
2018-04-15T12:01:16.798Z,0.60
2018-04-15T12:03:44.410Z,0.70
2018-04-15T12:06:12.031Z,0.80
2018-04-15T12:08:40.419Z,0.60
2018-04-15T12:11:08.039Z,0.60
2018-04-15T12:13:35.664Z,0.80
2018-04-15T12:16:04.082Z,0.50
2018-04-15T12:18:31.707Z,1.47
2018-04-15T12:21:00.479Z,1.47
2018-04-15T12:23:28.102Z,0.77
2018-04-15T12:25:55.728Z,0.80
2018-04-15T12:28:24.115Z,1.00
2018-04-15T12:30:52.498Z,0.70
2018-04-15T12:33:20.887Z,0.73
2018-04-15T12:35:49.274Z,1.03
2018-04-15T12:38:16.895Z,0.70
2018-04-15T12:40:44.515Z,1.00
2018-04-15T12:43:12.126Z,0.80
2018-04-15T12:45:39.751Z,0.70
2018-04-15T12:48:07.683Z,0.90
2018-04-15T12:50:35.303Z,0.80
2018-04-15T12:53:02.922Z,0.80
2018-04-15T12:55:31.316Z,0.77
2018-04-15T12:57:58.931Z,1.13
2018-04-15T13:00:26.552Z,0.70
2018-04-15T13:02:54.171Z,0.70
2018-04-15T13:05:21.787Z,0.60
2018-04-15T13:07:49.411Z,1.07
2018-04-15T13:10:17.318Z,0.87
2018-04-15T13:12:45.703Z,1.87
2018-04-15T13:15:13.340Z,0.70
2018-04-15T13:17:53.087Z,0.80
2018-04-15T13:20:20.708Z,1.03
2018-04-15T13:22:48.323Z,0.83
2018-04-15T13:25:15.947Z,1.00
2018-04-15T13:27:43.563Z,0.80
2018-04-15T13:30:11.947Z,0.80
2018-04-15T13:32:40.326Z,0.93
2018-04-15T13:35:08.706Z,0.90
2018-04-15T13:37:37.090Z,0.90
2018-04-15T13:40:05.479Z,1.13
2018-04-15T13:42:33.863Z,0.90
2018-04-15T13:45:01.492Z,0.70
2018-04-15T13:47:29.104Z,0.80
2018-04-15T13:49:56.724Z,0.73
2018-04-15T13:52:24.342Z,1.27
2018-04-15T13:54:51.954Z,1.13
2018-04-15T13:57:19.576Z,0.77
2018-04-15T13:59:47.199Z,1.33
2018-04-15T14:02:14.825Z,0.90
2018-04-15T14:04:42.443Z,0.97
2018-04-15T14:07:10.058Z,0.90
2018-04-15T14:09:37.667Z,0.80
2018-04-15T14:12:05.283Z,1.13
2018-04-15T14:14:32.925Z,1.07
2018-04-15T14:17:01.312Z,1.20
2018-04-15T14:19:28.926Z,1.23
2018-04-15T14:21:56.559Z,0.80
2018-04-15T14:24:24.163Z,0.80
2018-04-15T14:26:51.781Z,0.80
2018-04-15T14:29:19.719Z,0.90
2018-04-15T14:31:47.330Z,2.37
2018-04-15T14:34:14.952Z,1.03
2018-04-15T14:36:42.570Z,1.10
2018-04-15T14:39:10.187Z,1.03
2018-04-15T14:41:38.581Z,1.03
2018-04-15T14:44:06.962Z,0.97
2018-04-15T14:46:35.353Z,1.00
2018-04-15T14:49:03.746Z,0.90
2018-04-15T14:51:32.128Z,0.80
2018-04-15T14:53:59.755Z,1.03
2018-04-15T14:56:27.380Z,0.80
2018-04-15T14:58:54.991Z,0.90
2018-04-15T15:01:22.611Z,1.43
2018-04-15T15:03:50.244Z,0.97
2018-04-15T15:06:19.027Z,0.90
2018-04-15T15:08:46.639Z,0.93
2018-04-15T15:11:14.263Z,1.40
2018-04-15T15:13:42.638Z,1.20
2018-04-15T15:16:14.167Z,1.77
2018-04-15T15:18:41.791Z,1.30
2018-04-15T15:21:09.411Z,1.10
2018-04-15T15:23:37.023Z,1.00
2018-04-15T15:26:04.643Z,1.27
2018-04-15T15:28:32.263Z,1.37
2018-04-15T15:30:59.883Z,1.20
2018-04-15T15:33:27.499Z,1.30
2018-04-15T15:35:55.114Z,1.40
2018-04-15T15:38:22.727Z,1.23
2018-04-15T15:40:50.347Z,0.93
2018-04-15T15:43:17.960Z,2.43
2018-04-15T15:45:45.575Z,1.17
2018-04-15T15:48:13.203Z,1.23
2018-04-15T15:50:40.811Z,1.20
2018-04-15T15:53:08.431Z,1.63
2018-04-15T15:55:36.051Z,1.20
2018-04-15T15:58:04.432Z,1.27
2018-04-15T16:00:32.819Z,1.00
2018-04-15T16:03:01.202Z,2.20
2018-04-15T16:05:29.587Z,0.90
2018-04-15T16:07:57.972Z,1.37
2018-04-15T16:10:25.983Z,1.60
2018-04-15T16:12:53.671Z,1.20
2018-04-15T16:15:21.259Z,1.10
2018-04-15T16:17:48.883Z,1.00
2018-04-15T16:20:16.534Z,1.43
2018-04-15T16:22:44.931Z,1.00
2018-04-15T16:25:12.546Z,0.90
2018-04-15T16:27:40.163Z,1.00
2018-04-15T16:30:07.787Z,0.80
2018-04-15T16:32:36.175Z,0.90
2018-04-15T16:35:04.559Z,2.63
2018-04-15T16:37:32.952Z,0.70
2018-04-15T16:40:00.575Z,1.57
2018-04-15T16:42:28.195Z,0.80
2018-04-15T16:44:55.816Z,0.70
2018-04-15T16:47:23.430Z,0.50
2018-04-15T16:49:51.051Z,0.80
2018-04-15T16:52:18.679Z,1.53
2018-04-15T16:54:46.294Z,0.60
2018-04-15T16:57:14.736Z,0.70
2018-04-15T16:59:43.067Z,0.83
2018-04-15T17:02:19.492Z,2.47
2018-04-15T17:04:47.120Z,1.03
2018-04-15T17:07:14.734Z,0.50
2018-04-15T17:09:42.359Z,0.70
2018-04-15T17:12:09.976Z,1.00
2018-04-15T17:14:37.599Z,0.80
2018-04-15T17:17:05.210Z,1.10
2018-04-15T17:19:32.844Z,0.90
2018-04-15T17:22:00.467Z,0.80
2018-04-15T17:24:28.081Z,0.60
2018-04-15T17:26:55.706Z,1.27
2018-04-15T17:29:23.324Z,0.70
2018-04-15T17:31:50.943Z,0.80
2018-04-15T17:34:18.575Z,1.57
2018-04-15T17:36:46.196Z,0.77
2018-04-15T17:39:13.810Z,1.20
2018-04-15T17:41:42.195Z,1.60
2018-04-15T17:44:10.579Z,2.17
2018-04-15T17:46:38.958Z,0.93
2018-04-15T17:49:07.352Z,1.97
2018-04-15T17:51:35.739Z,2.00
2018-04-15T17:54:04.123Z,1.00
2018-04-15T17:56:32.887Z,1.33
2018-04-15T17:59:00.503Z,1.13
2018-04-15T18:01:28.127Z,1.20
2018-04-15T18:03:56.810Z,1.53
2018-04-15T18:06:24.430Z,1.23
2018-04-15T18:09:02.040Z,2.90
2018-04-15T18:11:29.659Z,1.00
2018-04-15T18:13:59.180Z,0.73
2018-04-15T18:16:26.803Z,1.27
2018-04-15T18:18:54.554Z,0.90
2018-04-15T18:21:22.209Z,1.63
2018-04-15T18:23:49.958Z,1.00
2018-04-15T18:26:18.372Z,1.37
2018-04-15T18:28:46.042Z,1.20
2018-04-15T18:31:13.997Z,2.30
2018-04-15T18:33:41.662Z,1.50
2018-04-15T18:36:09.473Z,1.60
2018-04-15T18:38:37.441Z,1.50
2018-04-15T18:41:05.255Z,1.63
2018-04-15T18:43:34.003Z,1.47
2018-04-15T18:46:01.688Z,1.40
2018-04-15T18:48:29.346Z,1.40
2018-04-15T18:50:56.996Z,1.50
2018-04-15T18:53:24.689Z,1.33
2018-04-15T18:55:52.337Z,2.47
2018-04-15T18:58:20.103Z,1.20
2018-04-15T19:00:47.991Z,2.10
2018-04-15T19:03:15.634Z,1.60
2018-04-15T19:05:43.309Z,2.37
2018-04-15T19:08:10.975Z,2.03
2018-04-15T19:10:38.626Z,1.60
2018-04-15T19:13:06.297Z,3.77
2018-04-15T19:15:33.947Z,1.90
2018-04-15T19:18:01.601Z,1.30
2018-04-15T19:20:29.248Z,2.63
2018-04-15T19:22:57.669Z,1.57
2018-04-15T19:25:26.355Z,1.23
2018-04-15T19:27:53.997Z,1.30
2018-04-15T19:30:21.654Z,1.00
2018-04-15T19:32:49.302Z,1.20
2018-04-15T19:35:16.980Z,1.57
2018-04-15T19:37:44.655Z,1.07
2018-04-15T19:40:13.114Z,2.23
2018-04-15T19:42:40.747Z,1.60
2018-04-15T19:45:08.427Z,1.33
2018-04-15T19:47:36.059Z,1.20
2018-04-15T19:50:03.663Z,1.30
2018-04-15T19:52:31.289Z,1.50
2018-04-15T19:54:59.012Z,0.93
2018-04-15T19:57:26.630Z,2.00
2018-04-15T19:59:54.287Z,1.00
2018-04-15T20:02:21.984Z,1.27
2018-04-15T20:04:49.664Z,1.40
2018-04-15T20:07:17.302Z,1.30
2018-04-15T20:09:44.961Z,0.90
2018-04-15T20:12:12.619Z,1.90
2018-04-15T20:14:40.996Z,2.80
2018-04-15T20:17:08.646Z,1.63
2018-04-15T20:19:36.283Z,1.63
2018-04-15T20:22:03.938Z,1.57
2018-04-15T20:24:31.608Z,1.87
2018-04-15T20:26:59.328Z,1.67
2018-04-15T20:29:26.947Z,2.03
2018-04-15T20:31:54.591Z,1.40
2018-04-15T20:34:22.244Z,1.60
2018-04-15T20:36:49.893Z,2.60
2018-04-15T20:39:17.576Z,1.30
2018-04-15T20:41:45.193Z,1.23
2018-04-15T20:44:12.806Z,4.37
2018-04-15T20:46:40.478Z,1.83
2018-04-15T20:49:08.210Z,1.40
2018-04-15T20:51:35.856Z,1.53
2018-04-15T20:54:03.520Z,1.60
2018-04-15T20:56:31.200Z,1.40
2018-04-15T20:59:14.334Z,1.53
2018-04-15T21:01:42.716Z,1.83
2018-04-15T21:04:11.099Z,1.20
2018-04-15T21:06:39.507Z,1.40
2018-04-15T21:09:07.156Z,1.50
2018-04-15T21:11:34.812Z,3.17
2018-04-15T21:14:03.195Z,1.00
2018-04-15T21:16:31.581Z,1.77
2018-04-15T21:18:59.965Z,0.87
2018-04-15T21:21:28.351Z,1.37
2018-04-15T21:23:56.730Z,2.30
2018-04-15T21:26:25.182Z,2.57
2018-04-15T21:28:52.795Z,1.90
2018-04-15T21:31:20.421Z,1.47
2018-04-15T21:33:48.041Z,1.63
2018-04-15T21:36:15.663Z,1.80
2018-04-15T21:38:44.046Z,1.50
2018-04-15T21:41:12.435Z,1.60
2018-04-15T21:43:40.047Z,1.50
2018-04-15T21:46:07.667Z,1.53
2018-04-15T21:48:36.055Z,1.60
2018-04-15T21:51:04.443Z,1.53
2018-04-15T21:53:32.063Z,1.57
2018-04-15T21:55:59.678Z,1.40
2018-04-15T21:58:27.294Z,1.93
2018-04-15T22:00:54.915Z,1.30
2018-04-15T22:03:22.535Z,1.40
2018-04-15T22:05:50.153Z,1.57
2018-04-15T22:08:17.767Z,1.60
2018-04-15T22:10:45.384Z,1.40
2018-04-15T22:13:13.008Z,1.50
2018-04-15T22:15:40.628Z,0.77
2018-04-15T22:18:08.243Z,1.13
2018-04-15T22:20:35.859Z,1.30
2018-04-15T22:23:03.475Z,1.87
2018-04-15T22:25:31.095Z,1.50
2018-04-15T22:27:58.715Z,1.57
2018-04-15T22:30:27.099Z,1.13
2018-04-15T22:32:54.716Z,1.27
2018-04-15T22:35:22.330Z,1.90
2018-04-15T22:37:49.953Z,2.33
2018-04-15T22:40:17.575Z,3.13
2018-04-15T22:42:45.959Z,1.20
2018-04-15T22:45:13.577Z,1.70
2018-04-15T22:47:41.193Z,1.83
2018-04-15T22:50:08.807Z,1.60
2018-04-15T22:52:36.418Z,2.10
2018-04-15T22:55:04.039Z,1.50
2018-04-15T22:57:31.659Z,1.40
2018-04-15T22:59:59.275Z,1.43
2018-04-15T23:02:26.894Z,1.53
2018-04-15T23:04:54.543Z,2.00
2018-04-15T23:07:22.159Z,4.03
2018-04-15T23:09:49.780Z,1.53
2018-04-15T23:12:17.408Z,1.70
2018-04-15T23:14:45.027Z,2.60
2018-04-15T23:17:12.640Z,1.87
2018-04-15T23:19:40.271Z,1.60
2018-04-15T23:22:07.887Z,2.70
2018-04-15T23:24:35.508Z,1.70
2018-04-15T23:27:03.154Z,2.60
2018-04-15T23:29:30.766Z,5.00
2018-04-15T23:31:58.387Z,1.57
2018-04-15T23:34:26.013Z,1.50
2018-04-15T23:36:53.639Z,1.70
2018-04-15T23:39:21.259Z,1.60
2018-04-15T23:41:49.642Z,1.67
2018-04-15T23:44:18.030Z,2.63
2018-04-15T23:46:45.655Z,1.60
2018-04-15T23:49:13.271Z,2.87
2018-04-15T23:51:40.891Z,2.00
2018-04-15T23:54:08.556Z,3.20
2018-04-15T23:56:36.144Z,1.67
2018-04-15T23:59:03.771Z,1.73
